Latest Weather Observations for Esperance Airport

IDW60801

Issued at 8:34 am WST Tuesday 24 January 2017 (issued every 30 minutes, with the page automatically refreshed every 10 minutes)

About weather observations | Map of weather stations | Latest weather observations for WA | Other Formats
Station Details ID: 009542 Name: ESPERANCE AERO Lat: -33.68 Lon: 121.83 Height: 142.0 m
Data from the previous 72 hours. | See also: Recent months at Esperance Airport
Date/Time
WST
Temp
°C
App
Temp
°C
Dew
Point
°C
Rel
Hum
%
Delta-T
°C
Wind Press
QNH
hPa
Press
MSL
hPa
Rain since
9am
mm
Dir  Spd
km/h
Gust
km/h
Spd
kts
Gust
kts
24/03:00am 9.5 7.3 6.2 80 1.5 NNE 7 7 4 4 1020.5 1020.0 0.0
24/02:30am 10.7 8.6 6.6 76 1.9 NE 7 7 4 4 1020.5 1020.0 0.0
24/02:00am 10.7 8.8 6.6 76 1.9 NE 6 7 3 4 1020.5 1020.0 0.0
24/01:30am 12.4 10.0 7.1 70 2.6 ENE 9 11 5 6 1020.5 1020.0 0.0
24/01:00am 11.3 8.9 6.8 74 2.1 ENE 9 9 5 5 1020.6 1020.1 0.0
24/12:30am 11.7 9.3 6.8 72 2.4 ESE 9 9 5 5 1020.6 1020.1 0.0
24/12:00am 11.0 9.3 5.7 70 2.5 SSE 4 7 2 4 1021.0 1020.5 0.0
 
Date/Time
WST
Temp
°C
App
Temp
°C
Dew
Point
°C
Rel
Hum
%
Delta-T
°C
Wind Press
QNH
hPa
Press
MSL
hPa
Rain since
9am
mm
Dir  Spd
km/h
Gust
km/h
Spd
kts
Gust
kts
23/11:30pm 12.4 10.0 7.1 70 2.6 SSE 9 11 5 6 1021.1 1020.6 0.0
23/11:00pm 12.5 10.1 7.2 70 2.6 SSE 9 11 5 6 1021.1 1020.6 0.0
23/10:30pm 12.4 9.6 7.1 70 2.6 SSE 11 13 6 7 1021.1 1020.6 0.0
23/10:00pm 12.6 10.3 7.3 70 2.6 SSE 9 11 5 6 1021.1 1020.6 0.0
23/09:30pm 13.1 10.8 7.5 69 2.8 SSE 9 11 5 6 1020.9 1020.4 0.0
23/09:00pm 13.1 11.2 7.5 69 2.7 SSE 7 9 4 5 1020.6 1020.1 0.0
23/08:30pm 12.9 10.5 7.1 68 2.8 S 9 11 5 6 1020.2 1019.7 0.0
23/08:00pm 13.5 11.2 7.3 66 3.0 S 9 11 5 6 1019.8 1019.3 0.0
23/07:30pm 14.1 11.4 7.4 64 3.3 S 11 13 6 7 1019.5 1019.0 0.0
23/07:00pm 15.4 12.0 7.7 60 3.9 S 15 20 8 11 1019.2 1018.7 0.0
23/06:30pm 16.5 12.2 7.7 56 4.5 S 20 28 11 15 1018.7 1018.2 0.0
23/06:00pm 17.5 12.5 8.1 54 4.8 S 24 32 13 17 1018.1 1017.6 0.0
23/05:30pm 18.6 13.6 8.0 50 5.5 S 24 33 13 18 1017.8 1017.3 0.0
23/05:00pm 19.5 14.7 8.8 50 5.6 S 24 37 13 20 1017.4 1016.8 0.0
23/04:30pm 19.2 13.7 9.1 52 5.3 S 28 43 15 23 1017.0 1016.4 0.0
23/04:00pm 18.9 12.9 8.8 52 5.3 SSW 30 41 16 22 1016.8 1016.2 0.0
23/03:30pm 19.8 13.9 9.1 50 5.7 S 30 41 16 22 1016.6 1016.0 0.0
23/03:00pm 21.7 15.9 10.8 50 6.0 SSW 32 43 17 23 1016.7 1016.1 0.0
23/02:30pm 19.9 13.6 8.9 49 5.8 SSW 32 43 17 23 1016.7 1016.1 0.0
23/02:00pm 19.9 12.7 9.2 50 5.7 SSW 37 46 20 25 1016.6 1016.0 0.0
23/01:43pm 21.5 14.7 9.4 46 6.5 SW 35 54 19 29 1016.6 1016.0 0.0
23/01:30pm 20.9 13.8 8.2 44 6.7 SSW 35 46 19 25 1016.6 1016.0 0.0
23/01:00pm 19.7 13.8 10.4 55 5.0 SSW 32 46 17 25 1016.5 1015.9 0.0
23/12:30pm 20.8 15.1 9.7 49 6.0 SSW 30 37 16 20 1016.3 1015.8 0.0
23/12:00pm 18.7 12.4 11.0 61 4.2 SSW 35 48 19 26 1016.2 1015.7 0.0
23/11:52am 19.6 14.2 10.9 57 4.8 SW 30 48 16 26 1016.0 1015.5 0.0
23/11:30am 19.9 13.8 10.3 54 5.2 SW 33 43 18 23 1015.9 1015.4 0.0
23/11:00am 21.0 14.9 9.6 48 6.1 SW 32 46 17 25 1015.7 1015.2 0.0
23/10:30am 21.4 16.2 10.3 49 6.1 SW 28 39 15 21 1015.7 1015.2 0.0
23/10:00am 17.1 10.5 12.6 75 2.5 SW 39 54 21 29 1015.5 1015.0 0.0
23/09:52am 19.2 13.4 11.5 61 4.3 SW 33 54 18 29 1015.2 1014.7 0.0
23/09:30am 21.5 15.4 10.3 49 6.1 SW 33 44 18 24 1015.0 1014.5 0.0
23/09:00am 20.1 14.2 11.1 56 5.0 SW 33 48 18 26 1014.6 1014.1 0.0
23/08:41am 18.4 13.2 11.7 65 3.7 SW 30 48 16 26 1014.6 1014.1 0.0
23/08:30am 17.5 11.9 12.0 70 3.0 SW 33 44 18 24 1014.6 1014.1 0.0
23/08:00am 19.0 14.6 11.6 62 4.1 WSW 26 39 14 21 1014.4 1013.9 0.0
23/07:30am 18.0 13.8 11.1 64 3.8 WSW 24 33 13 18 1014.2 1013.7 0.0
23/07:00am 16.9 13.6 11.0 68 3.2 WSW 19 22 10 12 1014.0 1013.5 0.0
23/06:30am 14.9 13.1 10.7 76 2.2 W 11 15 6 8 1013.5 1013.0 0.0
23/06:00am 13.4 11.6 10.8 84 1.4 W 11 15 6 8 1013.0 1012.5 0.0
23/05:30am 11.6 9.5 9.7 88 1.0 WNW 11 13 6 7 1012.5 1012.0 0.0
23/05:00am 11.3 9.4 9.0 86 1.2 NW 9 11 5 6 1012.0 1011.5 0.0
23/04:30am 11.5 9.6 8.9 84 1.3 WNW 9 11 5 6 1011.7 1011.2 0.0
23/04:00am 12.8 10.7 9.8 82 1.5 W 11 13 6 7 1011.7 1011.2 0.0
23/03:30am 12.9 10.8 9.9 82 1.5 WSW 11 13 6 7 1011.5 1011.0 0.0
23/03:00am 12.7 10.6 9.7 82 1.5 WSW 11 13 6 7 1011.3 1010.7 0.0
23/02:30am 13.5 11.1 9.9 79 1.9 SW 13 15 7 8 1011.3 1010.7 0.0
23/02:00am 14.3 12.0 10.3 77 2.1 SW 13 17 7 9 1011.1 1010.5 0.0
23/01:30am 14.9 12.4 10.9 77 2.1 SW 15 19 8 10 1011.1 1010.5 0.0
23/01:00am 15.9 13.8 12.3 79 2.0 SSW 15 19 8 10 1011.2 1010.6 0.0
23/12:30am 16.0 14.8 12.9 82 1.7 SW 11 15 6 8 1011.3 1010.7 0.0
23/12:00am 15.8 13.5 12.9 83 1.6 SW 17 22 9 12 1011.4 1010.8 0.0
 
Date/Time
WST
Temp
°C
App
Temp
°C
Dew
Point
°C
Rel
Hum
%
Delta-T
°C
Wind Press
QNH
hPa
Press
MSL
hPa
Rain since
9am
mm
Dir  Spd
km/h
Gust
km/h
Spd
kts
Gust
kts
22/11:30pm 16.7 13.6 12.3 75 2.4 SSW 20 28 11 15 1011.5 1011.0 0.0
22/11:00pm 17.0 14.7 11.7 71 2.9 SSW 15 19 8 10 1011.5 1011.0 0.0
22/10:30pm 16.8 14.5 11.9 73 2.7 SSW 15 22 8 12 1011.7 1011.2 0.0
22/10:00pm 15.9 14.2 12.5 80 1.9 SSW 13 15 7 8 1011.7 1011.2 0.0
22/09:30pm 15.6 14.0 12.7 83 1.6 SSW 13 17 7 9 1011.8 1011.3 0.0
22/09:00pm 16.4 15.0 13.3 82 1.7 SSW 13 19 7 10 1011.5 1011.0 0.0
22/08:30pm 17.1 14.9 14.4 84 1.6 SSW 19 24 10 13 1011.3 1010.7 0.0
22/08:14pm 16.9 15.3 14.9 88 1.2 SSW 17 22 9 12 1011.2 1010.6 0.0
22/08:00pm 17.0 15.9 15.2 89 1.1 SSW 15 22 8 12 1011.0 1010.4 0.0
22/07:48pm 17.2 15.4 15.4 89 1.1 SSW 19 24 10 13 1010.8 1010.2 0.0
22/07:45pm 17.1 15.0 15.1 88 1.2 SSW 20 24 11 13 1010.8 1010.2 0.0
22/07:33pm 17.3 15.1 14.8 85 1.5 SSW 20 26 11 14 1010.8 1010.2 0.0
22/07:30pm 17.5 15.3 14.8 84 1.6 SSW 20 26 11 14 1010.7 1010.1 0.0
22/07:00pm 18.3 15.7 13.8 75 2.6 S 20 24 11 13 1010.3 1009.7 0.0
22/06:30pm 18.6 14.9 13.9 74 2.7 S 26 32 14 17 1009.9 1009.3 0.0
22/06:00pm 19.1 15.1 14.1 73 2.9 S 28 35 15 19 1009.2 1008.6 0.0
22/05:30pm 19.2 13.6 13.4 69 3.3 S 35 48 19 26 1008.5 1008.0 0.0
22/05:00pm 20.6 13.9 13.3 63 4.2 SSW 41 54 22 29 1008.0 1007.5 0.0
22/04:30pm 20.1 14.1 13.3 65 3.9 SSW 37 50 20 27 1007.8 1007.3 0.0
22/04:00pm 20.4 13.4 13.6 65 3.9 SSW 43 54 23 29 1007.5 1007.0 0.0
22/03:30pm 22.3 15.8 13.9 59 4.9 SSW 41 54 22 29 1007.5 1007.0 0.0
22/03:00pm 22.0 15.1 14.1 61 4.6 SSW 43 54 23 29 1007.4 1006.9 0.0
22/02:38pm 22.0 16.0 14.4 62 4.5 SSW 39 57 21 31 1007.0 1006.5 0.0
22/02:30pm 22.8 16.5 14.6 60 4.9 SW 41 54 22 29 1006.9 1006.4 0.0
22/02:00pm 24.0 17.7 14.7 56 5.6 SSW 41 52 22 28 1006.9 1006.4 0.0
22/01:30pm 23.8 18.2 15.6 60 5.0 SW 39 46 21 25 1006.9 1006.4 0.0
22/01:00pm 22.7 18.0 15.8 65 4.2 SW 35 48 19 26 1006.9 1006.4 0.0
22/12:30pm 23.9 18.8 15.9 61 4.9 SW 37 52 20 28 1006.7 1006.2 0.0
22/12:00pm 25.8 21.2 16.1 55 6.0 SW 35 43 19 23 1006.5 1006.0 0.0
22/11:30am 25.9 21.5 15.6 53 6.3 SW 33 44 18 24 1006.5 1006.0 0.0
22/11:00am 28.0 23.8 13.5 41 8.7 SW 28 39 15 21 1006.6 1006.1 0.0
22/10:30am 29.0 24.7 13.2 37 9.4 SW 28 35 15 19 1006.5 1006.0 0.0
22/10:00am 29.5 26.8 12.9 36 9.9 WSW 19 30 10 16 1006.4 1005.9 0.0
22/09:30am 28.5 26.3 13.2 39 9.1 W 17 24 9 13 1006.6 1006.1 0.0
22/09:00am 27.5 24.7 12.7 40 8.7 W 19 24 10 13 1006.7 1006.2 0.0
22/08:30am 26.2 24.5 12.6 43 7.9 W 13 19 7 10 1006.8 1006.3 0.0
22/08:00am 26.0 24.8 12.8 44 7.7 NNW 11 17 6 9 1006.8 1006.3 0.0
22/07:30am 24.7 24.0 13.3 49 6.7 NNW 9 15 5 8 1007.1 1006.6 0.0
22/07:00am 21.2 21.9 13.4 61 4.5 NE 2 7 1 4 1007.1 1006.6 0.0
22/06:30am 19.1 18.8 12.8 67 3.6 ESE 6 7 3 4 1007.1 1006.6 0.0
22/06:00am 16.6 16.0 12.4 76 2.3 SE 7 7 4 4 1007.2 1006.7 0.0
22/05:30am 15.6 16.2 11.8 78 2.1 CALM 0 0 0 0 1007.0 1006.5 0.0
22/05:00am 15.7 15.0 12.1 79 2.0 NE 7 9 4 5 1006.6 1006.1 0.0
22/04:30am 15.8 15.2 11.8 77 2.2 NNE 6 7 3 4 1006.7 1006.2 0.0
22/04:00am 15.6 15.2 11.2 75 2.4 E 4 7 2 4 1006.5 1006.0 0.0
22/03:30am 16.9 16.1 11.6 71 2.9 ENE 7 11 4 6 1006.5 1006.0 0.0
22/03:00am 17.1 15.1 11.6 70 3.0 NE 13 20 7 11 1006.3 1005.8 0.0
22/02:30am 17.5 15.5 11.5 68 3.3 NE 13 22 7 12 1006.3 1005.8 0.0
22/02:00am 18.2 15.4 11.5 65 3.7 NE 17 24 9 13 1006.4 1005.9 0.0
22/01:30am 18.8 16.3 11.1 61 4.2 NE 15 22 8 12 1006.6 1006.1 0.0
22/01:00am 19.5 17.0 11.0 58 4.7 NE 15 20 8 11 1006.8 1006.3 0.0
22/12:30am 19.3 17.0 11.6 61 4.3 NE 15 20 8 11 1007.0 1006.5 0.0
22/12:00am 19.4 17.9 11.9 62 4.2 NE 11 17 6 9 1007.5 1007.0 0.0
 
Date/Time
WST
Temp
°C
App
Temp
°C
Dew
Point
°C
Rel
Hum
%
Delta-T
°C
Wind Press
QNH
hPa
Press
MSL
hPa
Rain since
9am
mm
Dir  Spd
km/h
Gust
km/h
Spd
kts
Gust
kts
21/11:30pm 19.4 17.8 11.7 61 4.3 NE 11 17 6 9 1007.9 1007.4 0.0
21/11:00pm 19.9 17.9 11.4 58 4.7 ENE 13 19 7 10 1008.2 1007.7 0.0
21/10:30pm 20.4 17.5 11.1 55 5.1 ENE 17 24 9 13 1008.1 1007.6 0.0
21/10:00pm 21.1 17.7 11.2 53 5.5 ENE 20 28 11 15 1008.1 1007.6 0.0
21/09:30pm 21.5 18.2 11.5 53 5.6 ENE 20 28 11 15 1008.3 1007.8 0.0
21/09:00pm 21.9 19.1 11.3 51 5.9 E 17 22 9 12 1008.4 1007.9 0.0
21/08:30pm 21.8 19.3 11.2 51 5.9 ESE 15 22 8 12 1008.5 1008.0 0.0
21/08:00pm 22.4 18.9 10.9 48 6.4 ESE 20 26 11 14 1008.3 1007.8 0.0
21/07:30pm 23.4 19.4 10.5 44 7.2 E 22 28 12 15 1008.0 1007.5 0.0
21/07:00pm 24.1 20.0 11.4 45 7.2 ESE 24 33 13 18 1007.9 1007.4 0.0
21/06:30pm 25.1 19.5 11.6 42 7.7 ESE 32 39 17 21 1007.6 1007.1 0.0
21/06:00pm 25.8 20.2 11.6 41 8.1 SE 32 39 17 21 1007.4 1006.9 0.0
21/05:30pm 26.3 21.0 12.4 42 8.1 ESE 32 37 17 20 1007.3 1006.8 0.0
21/05:00pm 27.1 22.4 13.1 42 8.3 SE 30 39 16 21 1007.0 1006.5 0.0
21/04:30pm 28.5 23.3 12.8 38 9.3 SE 32 43 17 23 1007.0 1006.5 0.0
21/04:00pm 29.0 23.9 13.2 37 9.4 SSE 32 41 17 22 1007.1 1006.6 0.0
21/03:30pm 29.1 24.3 12.9 37 9.6 SE 30 39 16 21 1007.2 1006.7 0.0
21/03:00pm 29.2 24.4 13.0 37 9.7 SE 30 39 16 21 1007.3 1006.8 0.0
21/02:30pm 29.2 24.8 14.2 40 9.1 SSE 30 41 16 22 1007.5 1007.0 0.0
21/02:00pm 31.0 26.6 14.2 36 10.3 SE 30 41 16 22 1007.6 1007.1 0.0
21/01:30pm 29.8 25.2 12.3 34 10.3 S 28 37 15 20 1008.0 1007.5 0.0
21/01:15pm 29.7 25.3 13.0 35 9.9 SSE 28 41 15 22 1008.0 1007.5 0.0
21/01:00pm 32.3 28.8 7.2 21 13.8 ENE 15 22 8 12 1008.1 1007.6 0.0
21/12:30pm 32.3 30.1 9.2 24 13.1 ENE 11 24 6 13 1008.5 1008.0 0.0
21/12:00pm 31.1 29.1 8.8 25 12.5 N 9 15 5 8 1008.8 1008.3 0.0
21/11:30am 30.6 27.3 9.5 27 11.9 N 17 26 9 14 1009.4 1008.8 0.0
21/11:00am 30.8 28.4 10.2 28 11.8 N 13 22 7 12 1009.9 1009.3 0.0
21/10:30am 30.5 27.7 11.5 31 11.1 NNW 17 28 9 15 1010.2 1009.6 0.0
21/10:00am 28.2 24.6 11.7 36 9.6 N 22 32 12 17 1010.6 1010.0 0.0
21/09:30am 28.5 24.7 12.4 37 9.5 N 24 32 13 17 1010.7 1010.1 0.0
21/09:00am 26.3 22.2 12.7 43 8.0 N 26 37 14 20 1010.8 1010.2 0.0

Other Formats:

Comma delimited format used in spreadsheet applications
http://www.bom.gov.au/fwo/IDW60801/IDW60801.95638.axf

JavaScript Object Notation format (JSON) in row-major order
http://www.bom.gov.au/fwo/IDW60801/IDW60801.95638.json